Towson, MD

12:17 AM EST on November 24, 2014 (GMT -0500)
Hampton | Change Station
CLOSE
Current Station
Personal Weather Station
Location: Towson, MD
Elevation: 348 ft
Nearby Weather Stations

Elev 348 ft 39.42 °N, 76.59 °W | Updated 18 seconds ago

Rain
Rain
51.4 °F
Feels Like 51.4 °F
N
0.0
Wind Variable Wind from SW
Gusts 0.0 mph

Today
High -- | Low -- °F
--% Chance of Precip.
Yesterday
High -- | Low -- °F
Precip. -- in
7:00 AM 4:45 PM
Waxing Crescent, 4% visible
Pressure 29.84 in
Visibility 7.0 miles
Clouds Scattered Clouds 700 ft
Scattered Clouds 1300 ft
Mostly Cloudy 3700 ft
Dew Point 50 °F
Humidity 94%
Rainfall 0.08 in
Snow Depth Not available.
UV 0 out of 12
Pollen .10 out of 12
Air Quality Not available.
Flu Activity Not available.
METAR KMTN 240503Z AUTO 07005KT 7SM DZ SCT007 SCT013 BKN037 11/11 A2984 RMK AO2

More Conditions Fewer Conditions

Pressure 29.84 in
Visibility 7.0 miles
Clouds Scattered Clouds 700 ft
Scattered Clouds 1300 ft
Mostly Cloudy 3700 ft
Dew Point 50 °F
Humidity 94%
Rainfall 0.08 in
Snow Depth Not available.
UV 0 out of 12
Pollen .10 out of 12
Air Quality Not available.
Flu Activity Not available.
METAR KMTN 240503Z AUTO 07005KT 7SM DZ SCT007 SCT013 BKN037 11/11 A2984 RMK AO2

More Conditions Fewer Conditions

10-Day Weather Forecast

Almanac

Astronomy

Nov. 24, 2014 Rise Set
Actual Time
Civil Twilight
Nautical Twilight
Astronomical Twilight
Moon
Length of Visible Light
Length of Day
Tomorrow will be .
, % of the Moon is Illuminated

Today's Extremes

State Highs State Lows

Community

WunderPhotos

Upload Photos

1,773,269 photos uploaded!

WunderBlogs® & News

Nearby

Air Quality

  Air Quality AQ Index Pollutant
Not available.

Snow Depth

Station Depth Elevation

Earthquake Activity

City Distance Mag. Time & Date
Minimum magnitude displayed is 2.5.

Coastal Water Temperatures

Place Temperature

Nearby Weather Stations